createdAt,value
2022-08-01T00:00:45.351Z,100797.00
2022-08-01T00:03:12.190Z,100800.00
2022-08-01T00:05:39.179Z,100813.00
2022-08-01T00:08:06.566Z,100798.00
2022-08-01T00:10:33.350Z,100795.00
2022-08-01T00:13:03.095Z,100806.00
2022-08-01T00:15:29.961Z,100812.00
2022-08-01T00:17:56.790Z,100827.00
2022-08-01T00:20:23.792Z,100816.00
2022-08-01T00:22:51.959Z,100828.00
2022-08-01T00:25:18.803Z,100821.00
2022-08-01T00:27:45.764Z,100816.00
2022-08-01T00:30:15.135Z,100816.00
2022-08-01T00:32:45.170Z,100805.00
2022-08-01T00:35:12.544Z,100801.00
2022-08-01T00:37:39.357Z,100813.00
2022-08-01T00:40:08.390Z,100811.00
2022-08-01T00:42:38.095Z,100814.00
2022-08-01T00:45:09.350Z,100813.00
2022-08-01T00:47:36.180Z,100817.00
2022-08-01T00:50:05.807Z,100814.00
2022-08-01T00:52:35.132Z,100812.00
2022-08-01T00:55:02.506Z,100813.00
2022-08-01T00:58:03.680Z,100814.00
2022-08-01T01:00:18.212Z,100807.00
2022-08-01T01:02:45.167Z,100798.00
2022-08-01T01:05:12.072Z,100803.00
2022-08-01T01:08:03.129Z,100799.00
2022-08-01T01:10:58.804Z,100799.00
2022-08-01T01:13:50.006Z,100794.00
2022-08-01T01:16:22.280Z,100797.00
2022-08-01T01:19:01.429Z,100796.00
2022-08-01T01:21:50.336Z,100798.00
2022-08-01T01:24:53.414Z,100789.00
2022-08-01T01:27:40.428Z,100797.00
2022-08-01T01:30:08.168Z,100797.00
2022-08-01T01:32:42.615Z,100795.00
2022-08-01T01:35:20.774Z,100796.00
2022-08-01T01:37:53.820Z,100784.00
2022-08-01T01:40:24.969Z,100787.00
2022-08-01T01:42:52.832Z,100787.00
2022-08-01T01:45:20.329Z,100777.00
2022-08-01T01:47:48.229Z,100773.00
2022-08-01T01:50:16.615Z,100781.00
2022-08-01T01:52:46.291Z,100767.00
2022-08-01T01:55:15.661Z,100784.00
2022-08-01T01:57:45.048Z,100784.00
2022-08-01T02:00:14.916Z,100796.00
2022-08-01T02:02:44.205Z,100786.00
2022-08-01T02:05:14.026Z,100790.00
2022-08-01T02:07:43.730Z,100785.00
2022-08-01T02:10:13.241Z,100783.00
2022-08-01T02:12:46.601Z,100782.00
2022-08-01T02:15:16.584Z,100779.00
2022-08-01T02:17:50.010Z,100785.00
2022-08-01T02:20:17.951Z,100778.00
2022-08-01T02:22:53.074Z,100788.00
2022-08-01T02:25:32.506Z,100785.00
2022-08-01T02:28:13.454Z,100789.00
2022-08-01T02:30:47.080Z,100787.00
2022-08-01T02:33:34.429Z,100784.00
2022-08-01T02:36:31.474Z,100786.00
2022-08-01T02:38:52.555Z,100788.00
2022-08-01T02:41:25.793Z,100788.00
2022-08-01T02:44:00.102Z,100786.00
2022-08-01T02:46:57.305Z,100790.00
2022-08-01T02:49:27.852Z,100777.00
2022-08-01T02:51:57.138Z,100779.00
2022-08-01T02:54:26.169Z,100781.00
2022-08-01T02:56:55.544Z,100773.00
2022-08-01T02:59:28.701Z,100781.00
2022-08-01T03:01:58.748Z,100791.00
2022-08-01T03:04:29.142Z,100784.00
2022-08-01T03:06:59.732Z,100795.00
2022-08-01T03:09:30.413Z,100796.00
2022-08-01T03:12:02.176Z,100782.00
2022-08-01T03:14:33.323Z,100779.00
2022-08-01T03:17:02.874Z,100778.00
2022-08-01T03:19:32.694Z,100789.00
2022-08-01T03:22:05.883Z,100793.00
2022-08-01T03:24:35.795Z,100783.00
2022-08-01T03:27:04.886Z,100786.00
2022-08-01T03:29:34.961Z,100796.00
2022-08-01T03:32:03.959Z,100790.00
2022-08-01T03:34:31.491Z,100798.00
2022-08-01T03:37:11.030Z,100797.00
2022-08-01T03:39:48.389Z,100798.00
2022-08-01T03:42:21.770Z,100808.00
2022-08-01T03:44:55.793Z,100816.00
2022-08-01T03:47:30.125Z,100810.00
2022-08-01T03:50:01.234Z,100811.00
2022-08-01T03:52:31.574Z,100808.00
2022-08-01T03:55:04.067Z,100810.00
2022-08-01T03:57:35.611Z,100810.00
2022-08-01T04:00:10.472Z,100816.00
2022-08-01T04:02:38.489Z,100813.00
2022-08-01T04:05:06.602Z,100808.00
2022-08-01T04:07:40.058Z,100806.00
2022-08-01T04:10:07.759Z,100807.00
2022-08-01T04:12:36.146Z,100814.00
2022-08-01T04:15:04.071Z,100815.00
2022-08-01T04:17:30.923Z,100808.00
2022-08-01T04:19:57.893Z,100807.00
2022-08-01T04:22:25.430Z,100813.00
2022-08-01T04:24:58.143Z,100811.00
2022-08-01T04:27:50.008Z,100810.00
2022-08-01T04:30:28.035Z,100801.00
2022-08-01T04:33:00.077Z,100798.00
2022-08-01T04:36:02.612Z,100815.00
2022-08-01T04:38:24.461Z,100808.00
2022-08-01T04:40:53.511Z,100815.00
2022-08-01T04:43:20.859Z,100810.00
2022-08-01T04:45:48.989Z,100810.00
2022-08-01T04:48:22.579Z,100822.00
2022-08-01T04:50:50.412Z,100824.00
2022-08-01T04:53:20.292Z,100819.00
2022-08-01T04:55:47.454Z,100820.00
2022-08-01T04:58:18.565Z,100829.00
2022-08-01T05:00:47.413Z,100819.00
2022-08-01T05:03:14.626Z,100825.00
2022-08-01T05:05:41.497Z,100827.00
2022-08-01T05:08:08.332Z,100828.00
2022-08-01T05:10:35.342Z,100825.00
2022-08-01T05:13:03.195Z,100834.00
2022-08-01T05:15:30.153Z,100832.00
2022-08-01T05:17:57.659Z,100836.00
2022-08-01T05:20:24.625Z,100839.00
2022-08-01T05:22:51.513Z,100835.00
2022-08-01T05:25:20.305Z,100836.00
2022-08-01T05:27:50.943Z,100828.00
2022-08-01T05:30:19.007Z,100825.00
2022-08-01T05:32:45.795Z,100844.00
2022-08-01T05:35:12.778Z,100830.00
2022-08-01T05:37:39.776Z,100827.00
2022-08-01T05:40:07.757Z,100819.00
2022-08-01T05:42:34.744Z,100835.00
2022-08-01T05:45:01.695Z,100818.00
2022-08-01T05:47:28.488Z,100837.00
2022-08-01T05:49:55.400Z,100832.00
2022-08-01T05:52:22.297Z,100828.00
2022-08-01T05:54:49.101Z,100829.00
2022-08-01T05:57:15.962Z,100846.00
2022-08-01T05:59:42.761Z,100847.00
2022-08-01T06:02:10.223Z,100848.00
2022-08-01T06:04:37.480Z,100849.00
2022-08-01T06:07:04.294Z,100858.00
2022-08-01T06:09:31.907Z,100856.00
2022-08-01T06:11:58.877Z,100857.00
2022-08-01T06:14:25.830Z,100863.00
2022-08-01T06:16:52.750Z,100846.00
2022-08-01T06:19:19.725Z,100848.00
2022-08-01T06:21:46.698Z,100857.00
2022-08-01T06:24:13.605Z,100863.00
2022-08-01T06:26:40.611Z,100867.00
2022-08-01T06:29:07.382Z,100877.00
2022-08-01T06:31:36.833Z,100863.00
2022-08-01T06:34:04.335Z,100871.00
2022-08-01T06:36:31.195Z,100864.00
2022-08-01T06:38:57.938Z,100867.00
2022-08-01T06:41:24.786Z,100857.00
2022-08-01T06:43:51.575Z,100862.00
2022-08-01T06:46:18.545Z,100862.00
2022-08-01T06:48:45.316Z,100865.00
2022-08-01T06:51:14.700Z,100872.00
2022-08-01T06:53:41.540Z,100873.00
2022-08-01T06:56:10.795Z,100869.00
2022-08-01T06:58:37.933Z,100869.00
2022-08-01T07:01:07.094Z,100863.00
2022-08-01T07:03:52.953Z,100863.00
2022-08-01T07:06:24.905Z,100865.00
2022-08-01T07:08:53.099Z,100880.00
2022-08-01T07:11:21.276Z,100871.00
2022-08-01T07:13:48.179Z,100872.00
2022-08-01T07:16:16.375Z,100875.00
2022-08-01T07:18:44.033Z,100869.00
2022-08-01T07:21:38.911Z,100877.00
2022-08-01T07:23:57.729Z,100883.00
2022-08-01T07:26:27.704Z,100877.00
2022-08-01T07:28:54.751Z,100881.00
2022-08-01T07:31:21.607Z,100886.00
2022-08-01T07:33:49.267Z,100887.00
2022-08-01T07:36:19.831Z,100895.00
2022-08-01T07:38:49.330Z,100887.00
2022-08-01T07:41:16.992Z,100887.00
2022-08-01T07:43:50.653Z,100898.00
2022-08-01T07:46:20.065Z,100898.00
2022-08-01T07:48:46.885Z,100896.00
2022-08-01T07:51:13.698Z,100900.00
2022-08-01T07:53:40.573Z,100897.00
2022-08-01T07:56:07.354Z,100902.00
2022-08-01T07:58:35.148Z,100894.00
2022-08-01T08:01:02.025Z,100911.00
2022-08-01T08:03:28.887Z,100915.00
2022-08-01T08:05:59.915Z,100909.00
2022-08-01T08:08:28.489Z,100905.00
2022-08-01T08:10:55.628Z,100907.00
2022-08-01T08:13:22.877Z,100901.00
2022-08-01T08:15:49.721Z,100916.00
2022-08-01T08:18:17.200Z,100912.00
2022-08-01T08:20:44.730Z,100915.00
2022-08-01T08:23:42.495Z,100914.00
2022-08-01T08:26:11.609Z,100918.00
2022-08-01T08:28:38.546Z,100921.00
2022-08-01T08:31:07.973Z,100921.00
2022-08-01T08:33:52.842Z,100914.00
2022-08-01T08:36:19.820Z,100927.00
2022-08-01T08:38:46.576Z,100920.00
2022-08-01T08:41:20.693Z,100923.00
2022-08-01T08:43:48.324Z,100922.00
2022-08-01T08:46:15.777Z,100928.00
2022-08-01T08:48:43.510Z,100921.00
2022-08-01T08:51:12.365Z,100915.00
2022-08-01T08:53:44.889Z,100930.00
2022-08-01T08:56:14.595Z,100923.00
2022-08-01T08:58:45.647Z,100933.00
2022-08-01T09:01:13.680Z,100924.00
2022-08-01T09:03:41.577Z,100936.00
2022-08-01T09:06:08.726Z,100935.00
2022-08-01T09:08:36.454Z,100940.00
2022-08-01T09:11:04.530Z,100934.00
2022-08-01T09:13:31.418Z,100939.00
2022-08-01T09:16:01.550Z,100933.00
2022-08-01T09:18:45.326Z,100943.00
2022-08-01T09:21:24.940Z,100945.00
2022-08-01T09:23:55.249Z,100940.00
2022-08-01T09:26:37.216Z,100942.00
2022-08-01T09:29:08.313Z,100949.00
2022-08-01T09:31:47.583Z,100955.00
2022-08-01T09:34:16.774Z,100963.00
2022-08-01T09:36:57.416Z,100955.00
2022-08-01T09:39:31.834Z,100959.00
2022-08-01T09:42:02.256Z,100953.00
2022-08-01T09:44:54.619Z,100961.00
2022-08-01T09:47:23.613Z,100961.00
2022-08-01T09:49:59.305Z,100958.00
2022-08-01T09:52:29.038Z,100965.00
2022-08-01T09:55:06.313Z,100966.00
2022-08-01T09:57:33.598Z,100979.00
2022-08-01T10:00:02.934Z,100981.00
2022-08-01T10:02:35.848Z,100976.00
2022-08-01T10:05:08.462Z,100985.00
2022-08-01T10:07:55.608Z,100985.00
2022-08-01T10:10:28.771Z,100985.00
2022-08-01T10:12:59.454Z,100989.00
2022-08-01T10:15:37.223Z,100983.00
2022-08-01T10:18:25.906Z,100994.00
2022-08-01T10:20:56.336Z,100995.00
2022-08-01T10:23:40.171Z,100990.00
2022-08-01T10:26:11.355Z,100998.00
2022-08-01T10:28:40.272Z,100993.00
2022-08-01T10:31:12.749Z,100995.00
2022-08-01T10:33:51.637Z,100995.00
2022-08-01T10:36:25.495Z,100998.00
2022-08-01T10:38:55.550Z,101000.00
2022-08-01T10:41:23.259Z,101001.00
2022-08-01T10:43:50.067Z,101000.00
2022-08-01T10:46:21.257Z,101001.00
2022-08-01T10:49:02.082Z,101009.00
2022-08-01T10:51:52.075Z,101001.00
2022-08-01T10:54:16.921Z,100999.00
2022-08-01T10:56:48.698Z,101009.00
2022-08-01T10:59:49.146Z,101007.00
2022-08-01T11:02:20.280Z,101004.00
2022-08-01T11:05:04.400Z,101011.00
2022-08-01T11:07:46.882Z,101006.00
2022-08-01T11:10:35.291Z,101004.00
2022-08-01T11:13:04.565Z,101010.00
2022-08-01T11:15:31.869Z,101011.00
2022-08-01T11:18:01.682Z,101011.00
2022-08-01T11:20:32.301Z,101013.00
2022-08-01T11:23:02.877Z,101023.00
2022-08-01T11:26:05.247Z,101025.00
2022-08-01T11:28:34.675Z,101021.00
2022-08-01T11:31:08.097Z,101036.00
2022-08-01T11:33:46.387Z,101036.00
2022-08-01T11:36:14.531Z,101040.00
2022-08-01T11:39:13.882Z,101053.00
2022-08-01T11:41:44.885Z,101052.00
2022-08-01T11:44:26.304Z,101050.00
2022-08-01T11:46:59.520Z,101057.00
2022-08-01T11:49:39.303Z,101070.00
2022-08-01T11:52:25.021Z,101053.00
2022-08-01T11:55:03.050Z,101061.00
2022-08-01T11:57:35.693Z,101062.00
2022-08-01T12:00:15.222Z,101064.00
2022-08-01T12:02:45.688Z,101053.00
2022-08-01T12:05:19.094Z,101052.00
2022-08-01T12:07:51.647Z,101050.00
2022-08-01T12:10:22.660Z,101049.00
2022-08-01T12:12:56.730Z,101047.00
2022-08-01T12:15:25.509Z,101041.00
2022-08-01T12:18:01.290Z,101044.00
2022-08-01T12:20:35.174Z,101036.00
2022-08-01T12:23:08.774Z,101043.00
2022-08-01T12:25:36.745Z,101042.00
2022-08-01T12:28:06.836Z,101052.00
2022-08-01T12:30:36.751Z,101041.00
2022-08-01T12:33:06.918Z,101051.00
2022-08-01T12:35:35.864Z,101055.00
2022-08-01T12:38:07.733Z,101058.00
2022-08-01T12:40:45.074Z,101058.00
2022-08-01T12:43:28.093Z,101055.00
2022-08-01T12:46:01.297Z,101055.00
2022-08-01T12:48:32.700Z,101045.00
2022-08-01T12:51:03.814Z,101047.00
2022-08-01T12:53:40.611Z,101046.00
2022-08-01T12:56:10.437Z,101048.00
2022-08-01T12:58:37.472Z,101049.00
2022-08-01T13:01:11.421Z,101049.00
2022-08-01T13:03:39.479Z,101051.00
2022-08-01T13:06:16.545Z,101048.00
2022-08-01T13:08:45.404Z,101060.00
2022-08-01T13:11:15.758Z,101054.00
2022-08-01T13:13:48.384Z,101050.00
2022-08-01T13:16:30.693Z,101053.00
2022-08-01T13:19:06.926Z,101054.00
2022-08-01T13:21:52.843Z,101053.00
2022-08-01T13:24:30.264Z,101050.00
2022-08-01T13:27:07.857Z,101053.00
2022-08-01T13:29:42.597Z,101048.00
2022-08-01T13:32:28.255Z,101057.00
2022-08-01T13:35:13.922Z,101055.00
2022-08-01T13:37:43.431Z,101061.00
2022-08-01T13:40:12.626Z,101064.00
2022-08-01T13:42:39.983Z,101056.00
2022-08-01T13:45:11.865Z,101057.00
2022-08-01T13:47:41.138Z,101056.00
2022-08-01T13:50:28.952Z,101053.00
2022-08-01T13:52:56.951Z,101054.00
2022-08-01T13:55:23.925Z,101060.00
2022-08-01T13:57:51.177Z,101075.00
2022-08-01T14:00:18.211Z,101067.00
2022-08-01T14:02:45.031Z,101068.00
2022-08-01T14:05:12.384Z,101073.00
2022-08-01T14:07:39.314Z,101080.00
2022-08-01T14:10:19.802Z,101088.00
2022-08-01T14:12:50.883Z,101083.00
2022-08-01T14:15:38.189Z,101091.00
2022-08-01T14:18:10.018Z,101091.00
2022-08-01T14:20:40.399Z,101080.00
2022-08-01T14:23:08.559Z,101093.00
2022-08-01T14:26:01.479Z,101093.00
2022-08-01T14:28:29.557Z,101084.00
2022-08-01T14:30:58.868Z,101092.00
2022-08-01T14:33:27.230Z,101093.00
2022-08-01T14:36:05.631Z,101082.00
2022-08-01T14:38:35.004Z,101086.00
2022-08-01T14:41:04.300Z,101089.00
2022-08-01T14:43:33.613Z,101090.00
2022-08-01T14:46:03.890Z,101087.00
2022-08-01T14:48:30.850Z,101092.00
2022-08-01T14:51:00.114Z,101095.00
2022-08-01T14:53:27.552Z,101094.00
2022-08-01T14:55:54.379Z,101094.00
2022-08-01T14:58:21.243Z,101108.00
2022-08-01T15:00:48.194Z,101111.00
2022-08-01T15:03:15.096Z,101121.00
2022-08-01T15:05:41.855Z,101111.00
2022-08-01T15:08:08.678Z,101114.00
2022-08-01T15:10:36.168Z,101124.00
2022-08-01T15:13:03.074Z,101121.00
2022-08-01T15:15:30.282Z,101137.00
2022-08-01T15:17:57.952Z,101135.00
2022-08-01T15:20:25.647Z,101135.00
2022-08-01T15:22:53.903Z,101130.00
2022-08-01T15:25:21.250Z,101138.00
2022-08-01T15:27:48.463Z,101125.00
2022-08-01T15:30:15.474Z,101135.00
2022-08-01T15:32:42.298Z,101135.00
2022-08-01T15:35:11.166Z,101131.00
2022-08-01T15:37:42.583Z,101127.00
2022-08-01T15:40:12.456Z,101133.00
2022-08-01T15:42:39.779Z,101131.00
2022-08-01T15:45:10.658Z,101118.00
2022-08-01T15:47:40.072Z,101129.00
2022-08-01T15:50:07.987Z,101139.00
2022-08-01T15:52:35.366Z,101139.00
2022-08-01T15:55:03.665Z,101141.00
2022-08-01T15:57:30.445Z,101145.00
2022-08-01T15:59:57.948Z,101134.00
2022-08-01T16:02:24.855Z,101136.00
2022-08-01T16:04:51.653Z,101141.00
2022-08-01T16:07:18.451Z,101137.00
2022-08-01T16:09:45.431Z,101137.00
2022-08-01T16:12:19.662Z,101139.00
2022-08-01T16:14:46.852Z,101138.00
2022-08-01T16:17:13.696Z,101133.00
2022-08-01T16:19:41.040Z,101134.00
2022-08-01T16:22:08.291Z,101132.00
2022-08-01T16:24:36.377Z,101140.00
2022-08-01T16:27:03.692Z,101134.00
2022-08-01T16:29:31.978Z,101133.00
2022-08-01T16:32:06.632Z,101136.00
2022-08-01T16:34:38.762Z,101141.00
2022-08-01T16:37:12.967Z,101135.00
2022-08-01T16:39:39.973Z,101132.00
2022-08-01T16:42:08.561Z,101141.00
2022-08-01T16:44:35.645Z,101145.00
2022-08-01T16:47:05.063Z,101139.00
2022-08-01T16:49:32.664Z,101145.00
2022-08-01T16:51:59.693Z,101143.00
2022-08-01T16:54:26.744Z,101133.00
2022-08-01T16:56:56.037Z,101139.00
2022-08-01T16:59:24.655Z,101135.00
2022-08-01T17:02:00.562Z,101144.00
2022-08-01T17:04:29.810Z,101131.00
2022-08-01T17:06:57.180Z,101134.00
2022-08-01T17:09:24.153Z,101137.00
2022-08-01T17:11:51.490Z,101142.00
2022-08-01T17:14:18.709Z,101144.00
2022-08-01T17:16:45.499Z,101145.00
2022-08-01T17:19:12.491Z,101148.00
2022-08-01T17:21:42.623Z,101164.00
2022-08-01T17:24:10.253Z,101147.00
2022-08-01T17:26:39.157Z,101152.00
2022-08-01T17:29:06.038Z,101147.00
2022-08-01T17:31:32.871Z,101145.00
2022-08-01T17:33:59.622Z,101146.00
2022-08-01T17:36:26.608Z,101142.00
2022-08-01T17:38:59.676Z,101152.00
2022-08-01T17:41:26.893Z,101143.00
2022-08-01T17:43:56.426Z,101153.00
2022-08-01T17:46:24.734Z,101147.00
2022-08-01T17:48:51.587Z,101158.00
2022-08-01T17:51:22.697Z,101150.00
2022-08-01T17:53:57.004Z,101155.00
2022-08-01T17:56:26.266Z,101159.00
2022-08-01T17:58:53.326Z,101153.00
2022-08-01T18:01:21.704Z,101156.00
2022-08-01T18:03:54.133Z,101158.00
2022-08-01T18:06:23.218Z,101162.00
2022-08-01T18:08:53.058Z,101165.00
2022-08-01T18:11:22.935Z,101146.00
2022-08-01T18:13:51.618Z,101151.00
2022-08-01T18:16:19.148Z,101154.00
2022-08-01T18:18:46.022Z,101157.00
2022-08-01T18:21:13.033Z,101168.00
2022-08-01T18:23:40.707Z,101158.00
2022-08-01T18:26:18.196Z,101147.00
2022-08-01T18:28:46.587Z,101160.00
2022-08-01T18:31:17.406Z,101164.00
2022-08-01T18:34:04.473Z,101160.00
2022-08-01T18:36:34.334Z,101166.00
2022-08-01T18:39:10.141Z,101170.00
2022-08-01T18:41:40.272Z,101168.00
2022-08-01T18:44:08.977Z,101177.00
2022-08-01T18:46:40.173Z,101179.00
2022-08-01T18:49:09.430Z,101175.00
2022-08-01T18:51:42.929Z,101167.00
2022-08-01T18:54:10.936Z,101180.00
2022-08-01T18:56:40.490Z,101180.00
2022-08-01T18:59:07.892Z,101191.00
2022-08-01T19:01:35.318Z,101196.00
2022-08-01T19:04:02.641Z,101192.00
2022-08-01T19:06:29.426Z,101198.00
2022-08-01T19:09:01.864Z,101209.00
2022-08-01T19:11:31.143Z,101205.00
2022-08-01T19:13:58.672Z,101207.00
2022-08-01T19:16:27.460Z,101216.00
2022-08-01T19:18:54.386Z,101218.00
2022-08-01T19:21:22.705Z,101226.00
2022-08-01T19:24:08.170Z,101227.00
2022-08-01T19:26:36.059Z,101224.00
2022-08-01T19:29:15.043Z,101220.00
2022-08-01T19:31:48.518Z,101220.00
2022-08-01T19:34:19.313Z,101232.00
2022-08-01T19:36:49.666Z,101230.00
2022-08-01T19:39:21.513Z,101231.00
2022-08-01T19:41:51.577Z,101241.00
2022-08-01T19:44:22.640Z,101236.00
2022-08-01T19:46:52.111Z,101238.00
2022-08-01T19:49:22.406Z,101238.00
2022-08-01T19:52:01.227Z,101242.00
2022-08-01T19:54:39.734Z,101242.00
2022-08-01T19:57:09.395Z,101243.00
2022-08-01T19:59:36.929Z,101251.00
2022-08-01T20:02:05.595Z,101254.00
2022-08-01T20:04:34.040Z,101252.00
2022-08-01T20:07:03.223Z,101254.00
2022-08-01T20:09:32.173Z,101255.00
2022-08-01T20:12:00.342Z,101266.00
2022-08-01T20:14:27.626Z,101265.00
2022-08-01T20:16:56.595Z,101272.00
2022-08-01T20:19:24.893Z,101280.00
2022-08-01T20:22:03.930Z,101282.00
2022-08-01T20:24:50.485Z,101279.00
2022-08-01T20:27:19.401Z,101277.00
2022-08-01T20:29:49.528Z,101284.00
2022-08-01T20:32:17.588Z,101282.00
2022-08-01T20:34:44.461Z,101287.00
2022-08-01T20:37:12.817Z,101295.00
2022-08-01T20:39:43.423Z,101287.00
2022-08-01T20:42:11.535Z,101301.00
2022-08-01T20:44:39.302Z,101297.00
2022-08-01T20:47:06.154Z,101303.00
2022-08-01T20:49:36.306Z,101307.00
2022-08-01T20:52:11.748Z,101305.00
2022-08-01T20:54:41.350Z,101309.00
2022-08-01T20:57:20.494Z,101303.00
2022-08-01T20:59:56.016Z,101320.00
2022-08-01T21:02:48.832Z,101318.00
2022-08-01T21:05:29.810Z,101307.00
2022-08-01T21:08:22.285Z,101320.00
2022-08-01T21:10:57.769Z,101321.00
2022-08-01T21:13:40.513Z,101312.00
2022-08-01T21:16:24.036Z,101312.00
2022-08-01T21:19:20.759Z,101318.00
2022-08-01T21:22:10.053Z,101319.00
2022-08-01T21:24:58.382Z,101329.00
2022-08-01T21:27:33.167Z,101334.00
2022-08-01T21:30:04.893Z,101336.00
2022-08-01T21:32:34.339Z,101329.00
2022-08-01T21:35:04.439Z,101321.00
2022-08-01T21:37:31.667Z,101330.00
2022-08-01T21:40:00.992Z,101348.00
2022-08-01T21:42:38.493Z,101340.00
2022-08-01T21:45:09.615Z,101339.00
2022-08-01T21:47:37.319Z,101340.00
2022-08-01T21:50:04.826Z,101341.00
2022-08-01T21:52:57.238Z,101351.00
2022-08-01T21:55:35.565Z,101352.00
2022-08-01T21:58:34.350Z,101351.00
2022-08-01T22:01:51.568Z,101352.00
2022-08-01T22:04:34.833Z,101350.00
2022-08-01T22:07:04.174Z,101351.00
2022-08-01T22:09:32.492Z,101359.00
2022-08-01T22:12:06.601Z,101356.00
2022-08-01T22:14:40.219Z,101351.00
2022-08-01T22:17:09.348Z,101358.00
2022-08-01T22:19:45.502Z,101365.00
2022-08-01T22:22:45.253Z,101363.00
2022-08-01T22:25:02.623Z,101367.00
2022-08-01T22:28:08.596Z,101369.00
2022-08-01T22:30:18.303Z,101366.00
2022-08-01T22:33:15.704Z,101365.00
2022-08-01T22:35:35.905Z,101367.00
2022-08-01T22:38:06.734Z,101365.00
2022-08-01T22:40:37.521Z,101369.00
2022-08-01T22:43:34.982Z,101376.00
2022-08-01T22:46:22.418Z,101389.00
2022-08-01T22:49:34.651Z,101391.00
2022-08-01T22:52:27.462Z,101373.00
2022-08-01T22:55:05.654Z,101375.00
2022-08-01T22:57:51.602Z,101375.00
2022-08-01T23:00:18.993Z,101375.00
2022-08-01T23:02:53.834Z,101378.00
2022-08-01T23:05:26.782Z,101385.00
2022-08-01T23:07:56.997Z,101377.00
2022-08-01T23:10:26.150Z,101374.00
2022-08-01T23:12:55.753Z,101377.00
2022-08-01T23:15:24.487Z,101387.00
2022-08-01T23:17:53.553Z,101375.00
2022-08-01T23:20:22.019Z,101375.00
2022-08-01T23:22:51.265Z,101385.00
2022-08-01T23:25:18.338Z,101372.00
2022-08-01T23:27:57.881Z,101371.00
2022-08-01T23:30:35.262Z,101375.00
2022-08-01T23:33:03.103Z,101385.00
2022-08-01T23:35:30.609Z,101389.00
2022-08-01T23:38:02.552Z,101379.00
2022-08-01T23:40:32.383Z,101380.00
2022-08-01T23:43:01.253Z,101370.00
2022-08-01T23:45:28.524Z,101372.00
2022-08-01T23:48:15.297Z,101370.00
2022-08-01T23:50:42.115Z,101362.00
2022-08-01T23:53:08.998Z,101365.00
2022-08-01T23:55:37.623Z,101377.00
2022-08-01T23:58:06.897Z,101375.00
